Time;durP1;ratioP1;P1;durP2;ratioP2;P2;SDS_P1;SDS_P2;PMS_P1;PMS_P2;Temp;Humidity;BMP_temperature;BMP_pressure;BME280_temperature;BME280_humidity;BME280_pressure;Samples;Min_cycle;Max_cycle;Signal;HPM_P1;HPM_P2
2022/04/25 00:02:05;;;;;;;20.65;13.32;;;8.10;99.90;;;;;;5061345;28;20037;-86
2022/04/25 00:04:31;;;;;;;17.58;11.82;;;8.20;99.90;;;;;;5058458;28;20510;-87
2022/04/25 00:06:56;;;;;;;21.13;12.93;;;8.20;99.90;;;;;;5058274;28;20118;-88
2022/04/25 00:09:22;;;;;;;17.58;12.63;;;8.30;99.90;;;;;;5085945;28;20059;-87
2022/04/25 00:11:48;;;;;;;19.42;12.75;;;8.30;99.90;;;;;;5061455;28;20395;-87
2022/04/25 00:14:14;;;;;;;18.75;12.23;;;8.30;99.90;;;;;;5059008;28;20620;-87
2022/04/25 00:16:40;;;;;;;22.33;13.10;;;8.30;99.90;;;;;;5078972;28;20123;-86
2022/04/25 00:19:06;;;;;;;19.75;12.88;;;8.30;99.90;;;;;;5084244;28;20450;-87
2022/04/25 00:21:32;;;;;;;16.98;12.65;;;8.20;99.90;;;;;;5055818;28;20705;-88
2022/04/25 00:23:58;;;;;;;21.67;12.80;;;8.10;99.90;;;;;;5059613;28;20051;-87
2022/04/25 00:26:33;;;;;;;16.63;11.38;;;8.10;99.90;;;;;;5056099;28;20110;-88
2022/04/25 00:29:07;;;;;;;16.55;12.20;;;8.10;99.90;;;;;;5059921;28;20552;-87
2022/04/25 00:31:32;;;;;;;19.08;12.38;;;8.10;99.90;;;;;;5059464;28;20068;-87
2022/04/25 00:33:58;;;;;;;16.60;12.32;;;8.20;99.90;;;;;;5057256;28;20070;-88
2022/04/25 00:36:24;;;;;;;18.70;13.82;;;8.10;99.90;;;;;;5057208;28;20060;-87
2022/04/25 00:38:49;;;;;;;18.30;13.32;;;8.20;99.90;;;;;;5074327;28;20057;-87
2022/04/25 00:41:16;;;;;;;19.63;13.50;;;8.20;99.90;;;;;;5055278;28;20090;-86
2022/04/25 00:43:41;;;;;;;19.65;13.80;;;8.10;99.90;;;;;;5055937;28;20438;-86
2022/04/25 00:46:19;;;;;;;22.02;13.68;;;8.10;99.90;;;;;;5077902;28;20036;-88
2022/04/25 00:48:45;;;;;;;18.85;13.00;;;8.00;99.90;;;;;;5069020;28;20032;-86
2022/04/25 00:51:11;;;;;;;20.55;12.98;;;8.10;99.90;;;;;;5074690;28;20047;-86
2022/04/25 00:53:37;;;;;;;16.88;13.00;;;8.10;99.90;;;;;;5066808;28;20036;-87
2022/04/25 00:56:05;;;;;;;21.42;13.15;;;8.10;99.90;;;;;;5075501;28;20047;-87
2022/04/25 00:58:30;;;;;;;19.98;13.30;;;8.00;99.90;;;;;;5074662;28;20511;-86
2022/04/25 01:00:56;;;;;;;18.88;13.13;;;7.90;99.90;;;;;;5072749;28;20049;-87
2022/04/25 01:03:22;;;;;;;22.05;13.02;;;8.00;99.90;;;;;;5066948;28;20051;-87
2022/04/25 01:05:47;;;;;;;21.75;13.45;;;8.00;99.90;;;;;;5057124;28;20140;-86
2022/04/25 01:08:13;;;;;;;19.20;13.30;;;7.90;99.90;;;;;;5056551;28;20719;-87
2022/04/25 01:10:39;;;;;;;20.65;13.63;;;7.90;99.90;;;;;;5061617;28;20079;-85
2022/04/25 01:13:07;;;;;;;23.15;13.52;;;8.00;99.90;;;;;;5056868;28;20035;-87
2022/04/25 01:15:34;;;;;;;19.33;13.20;;;7.90;99.90;;;;;;5059275;28;20061;-86
2022/04/25 01:17:59;;;;;;;19.27;13.57;;;7.80;99.90;;;;;;5068064;28;20376;-88
2022/04/25 01:20:25;;;;;;;21.13;13.23;;;7.80;99.90;;;;;;5069108;28;20039;-87
2022/04/25 01:22:57;;;;;;;17.98;12.82;;;7.60;99.90;;;;;;5057856;28;20064;-87
2022/04/25 01:28:09;;;;;;;19.15;13.43;;;7.60;99.90;;;;;;5076944;28;20122;-87
2022/04/25 01:30:35;;;;;;;19.65;14.85;;;7.50;99.90;;;;;;5068690;28;20039;-87
2022/04/25 01:33:01;;;;;;;22.23;14.57;;;7.40;99.90;;;;;;5072562;28;20036;-87
2022/04/25 01:35:27;;;;;;;23.10;13.32;;;7.30;1.00;;;;;;5056818;28;20032;-87
2022/04/25 01:37:55;;;;;;;18.80;13.25;;;7.30;1.00;;;;;;5056703;28;20040;-87
2022/04/25 01:40:20;;;;;;;20.10;13.05;;;7.20;1.00;;;;;;5058367;28;20035;-88
2022/04/25 01:42:46;;;;;;;19.88;12.68;;;7.20;1.00;;;;;;5057016;28;20039;-87
2022/04/25 01:45:12;;;;;;;19.27;12.23;;;7.10;1.00;;;;;;5072751;28;20040;-86
2022/04/25 01:47:37;;;;;;;19.98;12.55;;;7.10;1.00;;;;;;5071825;28;20078;-88
2022/04/25 01:50:04;;;;;;;19.25;13.10;;;7.10;1.00;;;;;;5055410;28;20509;-87
2022/04/25 01:52:35;;;;;;;19.70;13.50;;;7.10;99.90;;;;;;5073338;28;20046;-86
2022/04/25 01:55:02;;;;;;;18.92;12.63;;;7.10;99.90;;;;;;5067388;28;20335;-88
2022/04/25 01:57:28;;;;;;;19.38;13.27;;;7.20;1.00;;;;;;5066295;28;20515;-86
2022/04/25 01:59:54;;;;;;;21.55;13.05;;;7.20;1.00;;;;;;5071051;28;20058;-87
2022/04/25 02:02:22;;;;;;;18.35;13.13;;;7.20;99.90;;;;;;5055998;28;20052;-86
2022/04/25 02:04:49;;;;;;;18.38;12.73;;;7.30;99.90;;;;;;5083729;28;20048;-86
2022/04/25 02:07:14;;;;;;;19.05;13.10;;;7.30;1.00;;;;;;5053578;28;20135;-88
2022/04/25 02:09:40;;;;;;;21.63;13.55;;;7.40;1.00;;;;;;5071867;28;20604;-87
2022/04/25 02:12:06;;;;;;;20.52;13.40;;;7.40;1.00;;;;;;5055866;28;20104;-87
2022/04/25 02:14:33;;;;;;;18.60;12.98;;;7.40;1.00;;;;;;5060996;28;20028;-87
2022/04/25 02:16:59;;;;;;;19.58;12.68;;;7.50;99.90;;;;;;5061245;28;20032;-88
2022/04/25 02:19:26;;;;;;;18.83;13.48;;;7.50;99.90;;;;;;5056187;28;20067;-86
2022/04/25 02:21:54;;;;;;;21.15;14.35;;;7.50;99.90;;;;;;5068523;28;20039;-87
2022/04/25 02:24:21;;;;;;;19.63;14.25;;;7.50;1.00;;;;;;5060025;28;20035;-87
2022/04/25 02:26:48;;;;;;;21.90;13.43;;;7.50;1.00;;;;;;5068248;28;20047;-87
2022/04/25 02:29:14;;;;;;;17.80;13.52;;;7.50;1.00;;;;;;5069664;28;20040;-87
2022/04/25 02:31:39;;;;;;;21.90;13.77;;;7.50;99.90;;;;;;5074735;28;20150;-88
2022/04/25 02:34:05;;;;;;;16.35;12.27;;;7.50;99.90;;;;;;5073935;28;20076;-87
2022/04/25 02:36:31;;;;;;;18.85;12.35;;;7.50;99.90;;;;;;5074917;28;20067;-87
2022/04/25 02:38:57;;;;;;;18.20;12.10;;;7.50;99.90;;;;;;5079171;28;20037;-87
2022/04/25 02:41:22;;;;;;;19.33;12.20;;;7.50;99.90;;;;;;5076811;28;20487;-87
2022/04/25 02:43:48;;;;;;;19.10;12.23;;;7.40;99.90;;;;;;5060789;28;20106;-88
2022/04/25 02:46:16;;;;;;;16.60;11.80;;;7.50;99.90;;;;;;5083794;28;20040;-87
2022/04/25 02:48:43;;;;;;;20.50;12.15;;;7.50;99.90;;;;;;5057803;28;20521;-88
2022/04/25 02:51:10;;;;;;;16.85;11.80;;;7.50;99.90;;;;;;5058567;28;20541;-87
2022/04/25 02:53:37;;;;;;;15.07;10.88;;;7.50;99.90;;;;;;5079037;28;20040;-87
2022/04/25 02:56:03;;;;;;;19.75;10.32;;;7.60;99.90;;;;;;5077567;28;20032;-86
2022/04/25 02:58:31;;;;;;;15.45;10.60;;;7.60;99.90;;;;;;5078914;28;20067;-87
2022/04/25 03:00:57;;;;;;;14.73;10.55;;;7.70;99.90;;;;;;5061742;28;20044;-86
2022/04/25 03:03:27;;;;;;;15.50;10.75;;;7.70;99.90;;;;;;5071466;28;20196;-87
2022/04/25 03:05:54;;;;;;;14.05;9.55;;;7.70;99.90;;;;;;5076161;28;20032;-85
2022/04/25 03:08:22;;;;;;;19.13;10.52;;;7.70;99.90;;;;;;5073959;28;20365;-87
2022/04/25 03:10:49;;;;;;;15.43;10.40;;;7.70;99.90;;;;;;5070428;28;20044;-87
2022/04/25 03:13:15;;;;;;;17.00;11.45;;;7.70;99.90;;;;;;5076943;28;20143;-86
2022/04/25 03:15:43;;;;;;;15.38;10.55;;;7.70;99.90;;;;;;5060468;28;20043;-86
2022/04/25 03:18:10;;;;;;;18.20;10.75;;;7.70;99.90;;;;;;5064090;28;20051;-86
2022/04/25 03:20:41;;;;;;;17.55;10.48;;;7.70;99.90;;;;;;5056915;28;20036;-87
2022/04/25 03:23:07;;;;;;;16.88;10.30;;;7.70;99.90;;;;;;5058688;28;20575;-86
2022/04/25 03:25:33;;;;;;;17.88;11.20;;;7.70;99.90;;;;;;5056400;28;20043;-87
2022/04/25 03:28:00;;;;;;;15.48;11.50;;;7.80;99.90;;;;;;5070467;28;20142;-87
2022/04/25 03:30:27;;;;;;;16.33;11.68;;;7.70;99.90;;;;;;5061297;28;20109;-87
2022/04/25 03:32:53;;;;;;;18.60;11.77;;;7.80;99.90;;;;;;5060038;28;20043;-87
2022/04/25 03:35:22;;;;;;;16.25;11.40;;;7.80;99.90;;;;;;5073407;28;20024;-86
2022/04/25 03:37:49;;;;;;;18.15;11.75;;;7.80;99.90;;;;;;5057131;28;20032;-85
2022/04/25 03:40:15;;;;;;;16.38;12.07;;;7.70;99.90;;;;;;5058046;28;20468;-87
2022/04/25 03:42:44;;;;;;;17.42;12.15;;;7.70;99.90;;;;;;5070969;28;20039;-87
2022/04/25 03:45:12;;;;;;;17.35;10.60;;;7.70;99.90;;;;;;5077912;28;20254;-87
2022/04/25 03:47:38;;;;;;;18.00;11.43;;;7.60;99.90;;;;;;5075259;28;20040;-86
2022/04/25 03:50:09;;;;;;;16.55;10.82;;;7.70;99.90;;;;;;5058351;28;20118;-86
2022/04/25 03:52:36;;;;;;;16.23;11.32;;;7.60;99.90;;;;;;5061838;28;20105;-87
2022/04/25 03:57:54;;;;;;;14.63;11.13;;;7.60;99.90;;;;;;5069167;28;20127;-87
2022/04/25 04:00:20;;;;;;;16.08;10.88;;;7.50;99.90;;;;;;5056692;28;20071;-87
2022/04/25 04:02:46;;;;;;;14.95;10.40;;;7.50;99.90;;;;;;5059805;28;20057;-88
2022/04/25 04:05:12;;;;;;;14.30;10.63;;;7.50;99.90;;;;;;5057894;28;20039;-87
2022/04/25 04:07:39;;;;;;;15.05;10.80;;;7.60;99.90;;;;;;5070968;28;20119;-88
2022/04/25 04:10:05;;;;;;;20.02;11.23;;;7.50;99.90;;;;;;5075789;28;20325;-88
2022/04/25 04:12:32;;;;;;;15.60;11.63;;;7.50;99.90;;;;;;5058167;28;20105;-87
2022/04/25 04:14:58;;;;;;;18.65;12.35;;;7.50;99.90;;;;;;5076008;28;20447;-86
2022/04/25 04:17:24;;;;;;;15.43;11.77;;;7.50;99.90;;;;;;5058755;28;20593;-86
2022/04/25 04:19:52;;;;;;;16.90;11.43;;;7.50;99.90;;;;;;5071292;28;20105;-85
2022/04/25 04:22:21;;;;;;;14.32;10.90;;;7.50;99.90;;;;;;5071329;28;20153;-87
2022/04/25 04:24:47;;;;;;;16.10;10.93;;;7.60;99.90;;;;;;5058089;28;20336;-87
2022/04/25 04:27:16;;;;;;;13.65;10.65;;;7.60;99.90;;;;;;5071386;28;20726;-87
2022/04/25 04:29:45;;;;;;;18.33;10.75;;;7.60;99.90;;;;;;5056432;28;20123;-86
2022/04/25 04:32:15;;;;;;;16.02;10.98;;;7.60;99.90;;;;;;5055164;28;20064;-87
2022/04/25 04:34:46;;;;;;;13.02;10.20;;;7.70;99.90;;;;;;5054005;28;20082;-87
2022/04/25 04:37:12;;;;;;;17.27;10.60;;;7.70;99.90;;;;;;5055967;28;20024;-86
2022/04/25 04:39:37;;;;;;;12.00;9.90;;;7.70;99.90;;;;;;5058312;28;20036;-87
2022/04/25 04:42:03;;;;;;;14.77;10.15;;;7.70;99.90;;;;;;5059058;28;20050;-86
2022/04/25 04:44:29;;;;;;;13.43;10.07;;;7.70;99.90;;;;;;5059401;28;20046;-86
2022/04/25 04:46:55;;;;;;;13.88;10.13;;;7.70;99.90;;;;;;5060840;28;20135;-87
2022/04/25 04:49:24;;;;;;;14.52;9.63;;;7.70;99.90;;;;;;5057594;28;20036;-87
2022/04/25 04:51:49;;;;;;;12.50;9.88;;;7.70;99.90;;;;;;5057364;28;20040;-87
2022/04/25 04:54:15;;;;;;;11.65;9.73;;;7.70;99.90;;;;;;5058197;28;20483;-87
2022/04/25 04:56:41;;;;;;;13.25;9.95;;;7.80;99.90;;;;;;5066964;28;20063;-87
2022/04/25 04:59:06;;;;;;;14.95;10.35;;;7.80;99.90;;;;;;5059580;28;20067;-86
2022/04/25 05:01:32;;;;;;;14.23;10.05;;;7.80;99.90;;;;;;5073146;28;20056;-87
2022/04/25 05:04:04;;;;;;;16.15;10.45;;;7.80;99.90;;;;;;5055674;28;20032;-87
2022/04/25 05:06:30;;;;;;;14.10;10.18;;;7.80;99.90;;;;;;5055909;28;20344;-86
2022/04/25 05:08:55;;;;;;;13.98;10.52;;;7.80;99.90;;;;;;5059671;28;20041;-86
2022/04/25 05:11:21;;;;;;;14.80;9.73;;;7.90;99.90;;;;;;5055051;28;20037;-86
2022/04/25 05:13:48;;;;;;;13.75;9.98;;;7.90;99.90;;;;;;5057776;28;20599;-86
2022/04/25 05:16:14;;;;;;;15.00;9.80;;;7.80;99.90;;;;;;5056001;28;20032;-87
2022/04/25 05:18:44;;;;;;;13.00;9.40;;;7.80;99.90;;;;;;5066742;28;20502;-86
2022/04/25 05:21:13;;;;;;;14.90;9.55;;;7.90;99.90;;;;;;5054854;28;20091;-87
2022/04/25 05:23:42;;;;;;;14.18;10.20;;;7.90;99.90;;;;;;5056658;28;20084;-86
2022/04/25 05:26:08;;;;;;;14.25;10.10;;;7.80;99.90;;;;;;5067923;28;20376;-85
2022/04/25 05:28:36;;;;;;;14.85;9.60;;;7.80;99.90;;;;;;5069838;28;20214;-86
2022/04/25 05:31:03;;;;;;;15.30;10.10;;;7.90;99.90;;;;;;5072181;28;20385;-86
2022/04/25 05:33:29;;;;;;;14.25;10.57;;;7.80;99.90;;;;;;5073738;28;20146;-87
2022/04/25 05:35:57;;;;;;;15.07;9.93;;;7.80;99.90;;;;;;5057255;28;20511;-86
2022/04/25 05:38:23;;;;;;;12.32;9.48;;;7.80;99.90;;;;;;5074087;28;20539;-86
2022/04/25 05:40:52;;;;;;;15.70;9.32;;;7.80;99.90;;;;;;5054940;28;20227;-87
2022/04/25 05:43:18;;;;;;;13.15;9.30;;;7.80;99.90;;;;;;5068646;28;20222;-86
2022/04/25 05:45:47;;;;;;;13.80;9.35;;;7.90;99.90;;;;;;5059754;28;20072;-87
2022/04/25 05:53:54;;;;;;;12.07;9.30;;;7.90;99.90;;;;;;5076304;28;20502;-87
2022/04/25 05:56:20;;;;;;;14.52;9.68;;;7.90;99.90;;;;;;5063200;28;20569;-86
2022/04/25 05:58:47;;;;;;;13.15;9.90;;;7.90;99.90;;;;;;5061403;28;20062;-87
2022/04/25 06:01:13;;;;;;;13.60;9.10;;;8.00;99.90;;;;;;5077034;28;20057;-87
2022/04/25 06:03:38;;;;;;;13.75;9.43;;;8.00;99.90;;;;;;5059518;28;20142;-88
2022/04/25 06:06:04;;;;;;;14.30;9.13;;;8.00;99.90;;;;;;5079900;28;20352;-88
2022/04/25 06:08:29;;;;;;;15.73;9.27;;;8.10;99.90;;;;;;5062175;28;20040;-87
2022/04/25 06:10:55;;;;;;;12.77;9.90;;;8.00;99.90;;;;;;5066115;28;20047;-87
2022/04/25 06:13:25;;;;;;;14.30;9.80;;;8.10;99.90;;;;;;5063173;28;20150;-88
2022/04/25 06:15:51;;;;;;;15.82;10.20;;;8.20;99.90;;;;;;5063277;28;20036;-87
2022/04/25 06:18:17;;;;;;;14.07;9.57;;;8.20;99.90;;;;;;5063694;28;20349;-88
2022/04/25 06:20:43;;;;;;;13.32;9.50;;;8.20;99.90;;;;;;5062746;28;20036;-87
2022/04/25 06:23:09;;;;;;;11.82;9.98;;;8.30;99.90;;;;;;5077905;28;20048;-88
2022/04/25 06:25:37;;;;;;;13.40;9.80;;;8.40;99.90;;;;;;5069531;28;20036;-87
2022/04/25 06:28:04;;;;;;;16.83;9.93;;;8.50;99.90;;;;;;5076262;28;20101;-87
2022/04/25 06:30:30;;;;;;;14.20;9.48;;;8.50;99.90;;;;;;5061782;28;20054;-88
2022/04/25 06:33:00;;;;;;;13.45;9.90;;;8.60;99.90;;;;;;5061519;28;20036;-87
2022/04/25 06:35:27;;;;;;;13.05;10.02;;;8.70;99.90;;;;;;5059248;28;20037;-88
2022/04/25 06:37:56;;;;;;;13.15;9.90;;;8.70;99.90;;;;;;5063896;28;20024;-87
2022/04/25 06:40:22;;;;;;;14.02;9.80;;;8.60;99.90;;;;;;5067704;28;20609;-88
2022/04/25 06:42:48;;;;;;;12.60;10.40;;;8.70;99.90;;;;;;5075258;28;20188;-88
2022/04/25 06:45:15;;;;;;;18.63;10.63;;;8.60;99.90;;;;;;5075068;28;20032;-87
2022/04/25 06:47:41;;;;;;;16.77;9.95;;;8.60;99.90;;;;;;5061938;28;20036;-87
2022/04/25 06:50:07;;;;;;;16.08;9.95;;;8.60;99.90;;;;;;5059183;28;20046;-89
2022/04/25 06:52:33;;;;;;;16.73;9.98;;;8.50;99.90;;;;;;5075226;28;20039;-88
2022/04/25 06:54:59;;;;;;;15.85;10.05;;;8.30;99.90;;;;;;5061433;28;20047;-86
2022/04/25 06:57:25;;;;;;;15.57;10.40;;;8.30;99.90;;;;;;5084173;28;20075;-87
2022/04/25 06:59:51;;;;;;;15.48;10.18;;;8.30;99.90;;;;;;5073352;28;20131;-87
2022/04/25 07:02:17;;;;;;;16.15;10.32;;;8.20;99.90;;;;;;5059738;28;20124;-89
2022/04/25 07:04:43;;;;;;;16.58;11.68;;;8.20;99.90;;;;;;5061305;28;20032;-87
2022/04/25 07:07:09;;;;;;;16.13;11.07;;;8.20;99.90;;;;;;5073046;28;20032;-88
2022/04/25 07:09:35;;;;;;;15.23;11.30;;;8.20;99.90;;;;;;5058076;28;20476;-87
2022/04/25 07:12:03;;;;;;;16.85;11.82;;;8.10;99.90;;;;;;5079119;28;20071;-88
2022/04/25 07:14:29;;;;;;;13.07;10.48;;;8.10;99.90;;;;;;5073450;28;20086;-86
2022/04/25 07:16:59;;;;;;;13.32;11.13;;;8.20;99.90;;;;;;5059610;28;20488;-87
2022/04/25 07:19:25;;;;;;;14.45;10.48;;;8.20;99.90;;;;;;5075702;28;20044;-88
2022/04/25 07:30:04;;;;;;;15.40;10.52;;;8.30;99.90;;;;;;5068363;28;20082;-88
2022/04/25 07:32:30;;;;;;;15.43;10.27;;;8.40;99.90;;;;;;5066063;28;20048;-87
2022/04/25 07:35:02;;;;;;;16.20;11.32;;;8.40;99.90;;;;;;5057136;28;20070;-88
2022/04/25 07:37:27;;;;;;;14.38;10.23;;;8.40;99.90;;;;;;5061251;28;20024;-87
2022/04/25 07:39:53;;;;;;;15.98;10.68;;;8.40;99.90;;;;;;5061055;28;20070;-88
2022/04/25 07:42:19;;;;;;;16.33;10.73;;;8.40;99.90;;;;;;5071166;28;20078;-87
2022/04/25 07:44:46;;;;;;;14.98;10.98;;;8.50;99.90;;;;;;5070715;28;20047;-87
2022/04/25 07:47:15;;;;;;;16.15;10.65;;;8.60;99.90;;;;;;5076259;28;20036;-89
2022/04/25 07:49:41;;;;;;;18.90;11.50;;;8.60;99.90;;;;;;5060400;28;20040;-87
2022/04/25 07:52:09;;;;;;;14.23;10.73;;;8.60;99.90;;;;;;5059963;28;20504;-88
2022/04/25 07:54:35;;;;;;;17.83;11.50;;;8.60;99.90;;;;;;5062321;28;20113;-86
2022/04/25 07:57:03;;;;;;;18.25;11.63;;;8.70;99.90;;;;;;5061086;28;20471;-87
2022/04/25 07:59:30;;;;;;;18.23;11.93;;;8.70;99.90;;;;;;5059705;28;20052;-87
2022/04/25 08:01:56;;;;;;;14.85;11.68;;;8.80;99.90;;;;;;5058243;28;20130;-86
2022/04/25 08:04:21;;;;;;;18.17;11.38;;;8.80;99.90;;;;;;5064695;28;20043;-87
2022/04/25 08:06:47;;;;;;;15.10;10.90;;;8.90;96.50;;;;;;5057262;28;20040;-88
2022/04/25 08:09:15;;;;;;;12.45;10.68;;;9.10;99.90;;;;;;5060268;28;20047;-88
2022/04/25 08:11:41;;;;;;;14.23;10.77;;;9.10;72.60;;;;;;5073399;28;20085;-87
2022/04/25 08:19:35;;;;;;;15.85;10.88;;;9.10;65.00;;;;;;5071958;28;20067;-87
2022/04/25 08:22:01;;;;;;;13.40;10.35;;;9.10;78.50;;;;;;5073357;28;20460;-87
2022/04/25 08:24:27;;;;;;;14.02;10.35;;;9.00;55.50;;;;;;5054928;28;20495;-88
2022/04/25 08:26:55;;;;;;;20.45;10.70;;;9.10;85.10;;;;;;5071484;28;20032;-87
2022/04/25 08:29:22;;;;;;;18.27;10.00;;;9.10;39.90;;;;;;5056384;28;20036;-88
2022/04/25 08:31:49;;;;;;;12.63;9.82;;;9.10;52.80;;;;;;5060228;28;20141;-87
2022/04/25 08:34:17;;;;;;;15.32;9.57;;;9.10;45.40;;;;;;5055930;28;20271;-87
2022/04/25 08:36:43;;;;;;;12.88;8.88;;;9.10;70.10;;;;;;5073146;28;20036;-87
2022/04/25 08:39:09;;;;;;;13.20;9.23;;;9.10;16.90;;;;;;5056587;28;20562;-87
2022/04/25 08:41:44;;;;;;;12.15;8.55;;;9.20;51.70;;;;;;5057058;28;20036;-87
2022/04/25 08:44:11;;;;;;;11.35;7.90;;;9.20;29.60;;;;;;5067185;28;20071;-87
2022/04/25 08:46:40;;;;;;;10.48;7.70;;;9.30;5.80;;;;;;5054795;28;20145;-88
2022/04/25 08:49:06;;;;;;;10.38;7.50;;;9.40;1.00;;;;;;5057336;28;20024;-88
2022/04/25 08:51:35;;;;;;;11.55;7.53;;;9.40;1.00;;;;;;5053832;28;20077;-87
2022/04/25 08:54:03;;;;;;;9.18;7.00;;;9.50;1.00;;;;;;5081038;28;20039;-88
2022/04/25 08:56:29;;;;;;;9.85;6.97;;;9.40;1.00;;;;;;5081244;28;20044;-87
2022/04/25 08:58:56;;;;;;;12.25;6.93;;;9.40;1.00;;;;;;5058797;28;20058;-87
2022/04/25 09:01:22;;;;;;;10.32;6.93;;;9.30;1.00;;;;;;5061361;28;20052;-87
2022/04/25 09:03:47;;;;;;;11.95;6.38;;;9.40;29.30;;;;;;5053912;28;20044;-86
2022/04/25 09:06:13;;;;;;;10.48;6.20;;;9.20;1.00;;;;;;5064407;28;20036;-86
2022/04/25 09:08:39;;;;;;;9.88;6.50;;;9.20;1.00;;;;;;5054259;28;20051;-87
2022/04/25 09:13:51;;;;;;;9.45;6.40;;;9.30;1.00;;;;;;5029151;28;20063;-87
2022/04/25 09:16:19;;;;;;;9.15;6.40;;;9.40;1.00;;;;;;5085102;28;20044;-87
2022/04/25 09:18:45;;;;;;;9.90;6.00;;;9.30;1.00;;;;;;5054940;28;20039;-87
2022/04/25 09:21:14;;;;;;;11.32;5.95;;;9.40;1.00;;;;;;5056706;28;20047;-87
2022/04/25 09:23:41;;;;;;;8.65;5.97;;;9.40;1.00;;;;;;5066210;28;22247;-87
2022/04/25 09:26:28;;;;;;;8.02;6.10;;;9.50;1.00;;;;;;5054165;28;20177;-88
2022/04/25 09:28:56;;;;;;;9.35;6.00;;;9.50;1.00;;;;;;5056592;28;20099;-89
2022/04/25 09:31:27;;;;;;;10.45;6.15;;;9.50;1.00;;;;;;5065592;28;20039;-86
2022/04/25 09:34:12;;;;;;;8.70;6.35;;;9.70;1.00;;;;;;5056671;28;20051;-87
2022/04/25 09:36:50;;;;;;;10.63;6.15;;;9.80;1.00;;;;;;5056304;28;20562;-87
2022/04/25 09:39:30;;;;;;;8.90;5.70;;;10.00;1.00;;;;;;5072824;28;20360;-86
2022/04/25 09:41:57;;;;;;;7.80;6.22;;;10.10;1.00;;;;;;5067072;28;20299;-87
2022/04/25 09:44:23;;;;;;;10.73;6.60;;;10.40;1.00;;;;;;5052857;28;20044;-87
2022/04/25 09:46:49;;;;;;;8.43;6.43;;;10.50;1.00;;;;;;5055074;28;20459;-87
2022/04/25 09:49:24;;;;;;;10.40;6.38;;;10.60;1.00;;;;;;5058173;28;20239;-88
2022/04/25 09:52:04;;;;;;;9.60;6.53;;;10.80;1.00;;;;;;5071009;28;20033;-86
2022/04/25 09:54:30;;;;;;;11.00;6.20;;;10.80;1.00;;;;;;5074519;28;20066;-88
2022/04/25 09:56:56;;;;;;;10.57;6.05;;;11.00;1.00;;;;;;5066932;28;20269;-87
2022/04/25 09:59:22;;;;;;;10.43;6.07;;;11.20;1.00;;;;;;5068211;28;22386;-87
2022/04/25 10:02:07;;;;;;;12.85;6.53;;;11.30;1.00;;;;;;5059434;28;20070;-87
2022/04/25 10:04:37;;;;;;;10.82;6.05;;;11.40;99.90;;;;;;5056532;28;20814;-87
2022/04/25 10:07:05;;;;;;;9.48;5.85;;;11.80;1.00;;;;;;5057097;28;20044;-86
2022/04/25 10:09:33;;;;;;;9.45;5.82;;;11.60;99.90;;;;;;5083319;28;20049;-86
2022/04/25 10:12:02;;;;;;;9.25;5.82;;;11.80;99.90;;;;;;5057775;28;20040;-87
2022/04/25 10:14:28;;;;;;;10.20;6.00;;;11.60;99.90;;;;;;5056737;28;20091;-88
2022/04/25 10:16:56;;;;;;;10.85;5.93;;;11.80;99.90;;;;;;5055567;28;20101;-87
2022/04/25 10:19:26;;;;;;;9.00;5.97;;;11.90;1.00;;;;;;5061297;28;20089;-87
2022/04/25 10:21:54;;;;;;;9.70;6.10;;;11.80;99.90;;;;;;5087385;28;20043;-87
2022/04/25 10:24:20;;;;;;;8.55;5.53;;;11.60;99.90;;;;;;5053147;28;20450;-88
2022/04/25 10:26:50;;;;;;;7.68;5.88;;;11.70;99.90;;;;;;5054833;28;20584;-87
2022/04/25 10:29:29;;;;;;;8.50;5.88;;;11.80;99.90;;;;;;5070956;28;20036;-87
2022/04/25 10:31:58;;;;;;;9.30;5.82;;;12.10;99.90;;;;;;5074327;28;20527;-88
2022/04/25 10:34:46;;;;;;;9.63;5.80;;;12.10;99.90;;;;;;5069987;28;20040;-86
2022/04/25 10:37:34;;;;;;;7.25;5.18;;;12.30;99.90;;;;;;5058597;28;20055;-87
2022/04/25 10:40:06;;;;;;;7.10;5.45;;;12.10;99.90;;;;;;5060825;28;20418;-87
2022/04/25 10:45:16;;;;;;;10.18;5.75;;;12.20;99.90;;;;;;5076113;28;20145;-87
2022/04/25 10:47:59;;;;;;;8.43;5.65;;;12.20;99.90;;;;;;5057678;28;20044;-87
2022/04/25 10:50:29;;;;;;;9.85;5.75;;;12.10;99.90;;;;;;5069683;28;20453;-88
2022/04/25 10:52:56;;;;;;;8.07;5.70;;;12.20;99.90;;;;;;5060259;28;20172;-88
2022/04/25 10:55:34;;;;;;;9.40;5.82;;;12.20;99.90;;;;;;5086377;28;20036;-87
2022/04/25 10:58:03;;;;;;;9.77;5.70;;;12.10;99.90;;;;;;5071352;28;20578;-87
2022/04/25 11:00:41;;;;;;;8.40;5.30;;;12.20;99.90;;;;;;5088888;28;20102;-88
2022/04/25 11:03:18;;;;;;;9.25;6.00;;;12.30;99.90;;;;;;5077252;28;20089;-87
2022/04/25 11:05:49;;;;;;;8.10;5.70;;;12.40;99.90;;;;;;5059959;28;20478;-86
2022/04/25 11:08:18;;;;;;;6.88;5.70;;;12.60;99.90;;;;;;5077622;28;20109;-87
2022/04/25 11:11:02;;;;;;;7.68;5.88;;;12.80;99.90;;;;;;5088125;28;20052;-86
2022/04/25 11:13:33;;;;;;;8.40;6.13;;;13.00;99.90;;;;;;5069809;28;20401;-86
2022/04/25 11:16:22;;;;;;;6.72;5.38;;;13.10;99.90;;;;;;5066107;28;21034;-88
2022/04/25 11:19:08;;;;;;;7.75;5.15;;;13.30;99.90;;;;;;5089364;28;20480;-87
2022/04/25 11:21:34;;;;;;;7.72;5.70;;;13.40;99.90;;;;;;5067406;28;20047;-87
2022/04/25 11:24:01;;;;;;;8.32;5.80;;;13.60;99.90;;;;;;5076897;28;20028;-87
2022/04/25 11:26:29;;;;;;;8.88;5.40;;;13.80;99.90;;;;;;5074300;28;20043;-87
2022/04/25 11:28:54;;;;;;;7.35;5.68;;;13.60;99.90;;;;;;5071797;28;20029;-86
2022/04/25 11:31:22;;;;;;;8.18;5.65;;;13.90;99.90;;;;;;5059462;28;20494;-87
2022/04/25 11:33:50;;;;;;;9.52;5.57;;;13.90;99.90;;;;;;5054678;28;20040;-88
2022/04/25 11:36:18;;;;;;;8.35;5.63;;;13.80;99.90;;;;;;5060487;28;20062;-87
2022/04/25 11:41:33;;;;;;;10.45;5.97;;;13.90;99.90;;;;;;5074232;28;20502;-87
2022/04/25 11:43:58;;;;;;;8.90;6.22;;;14.00;99.90;;;;;;5075165;28;20040;-88
2022/04/25 11:46:28;;;;;;;7.85;6.03;;;13.70;99.90;;;;;;5071302;28;20047;-86
2022/04/25 11:48:55;;;;;;;8.57;6.35;;;13.60;99.90;;;;;;5052765;28;20052;-88
2022/04/25 11:51:25;;;;;;;7.40;6.13;;;13.60;99.90;;;;;;5054761;28;20407;-88
2022/04/25 11:53:54;;;;;;;9.20;6.30;;;13.70;99.90;;;;;;5058125;28;20040;-87
2022/04/25 11:56:24;;;;;;;7.80;6.40;;;13.70;99.90;;;;;;5058606;28;21648;-87
2022/04/25 11:58:50;;;;;;;11.50;6.72;;;13.70;99.90;;;;;;5057742;28;20437;-87
2022/04/25 12:01:38;;;;;;;9.15;6.28;;;13.80;99.90;;;;;;5060142;28;20160;-88
2022/04/25 12:04:19;;;;;;;8.60;6.50;;;13.90;99.90;;;;;;5061667;28;20512;-86
2022/04/25 12:07:08;;;;;;;8.48;6.00;;;13.70;99.90;;;;;;5058992;28;20036;-87
2022/04/25 12:15:35;;;;;;;9.18;6.70;;;13.30;99.90;;;;;;5092132;28;20264;-87
2022/04/25 12:18:21;;;;;;;9.95;7.20;;;13.30;99.90;;;;;;5083445;28;20036;-87
2022/04/25 12:21:02;;;;;;;11.02;7.40;;;13.20;99.90;;;;;;5076737;28;20036;-87
2022/04/25 12:23:45;;;;;;;8.95;6.68;;;13.10;99.90;;;;;;5060013;28;20079;-87
2022/04/25 12:26:22;;;;;;;9.93;7.88;;;13.10;99.90;;;;;;5071867;28;20340;-87
2022/04/25 12:29:00;;;;;;;10.88;7.53;;;13.30;99.90;;;;;;5077099;28;20044;-87
2022/04/25 12:31:27;;;;;;;11.82;7.82;;;13.30;99.90;;;;;;5060489;28;20394;-87
2022/04/25 12:34:06;;;;;;;14.05;8.50;;;13.40;99.90;;;;;;5057499;28;20032;-87
2022/04/25 12:36:32;;;;;;;9.95;7.47;;;13.60;99.90;;;;;;5058108;28;20036;-87
2022/04/25 12:38:58;;;;;;;10.27;7.78;;;13.90;99.90;;;;;;5059503;28;20036;-87
2022/04/25 12:41:26;;;;;;;12.30;7.32;;;14.10;99.90;;;;;;5069351;28;20488;-88
2022/04/25 12:43:54;;;;;;;10.10;6.80;;;14.30;99.90;;;;;;5083392;28;20117;-87
2022/04/25 12:46:34;;;;;;;10.05;6.90;;;14.50;99.90;;;;;;5067828;28;20044;-86
2022/04/25 12:49:08;;;;;;;10.48;6.75;;;14.70;99.90;;;;;;5056314;28;20040;-87
2022/04/25 12:51:52;;;;;;;10.00;6.47;;;14.60;99.90;;;;;;5072848;28;20071;-86
2022/04/25 12:54:43;;;;;;;12.75;6.80;;;14.50;99.90;;;;;;5069944;28;20032;-87
2022/04/25 12:57:16;;;;;;;9.18;6.97;;;14.50;99.90;;;;;;5053465;28;20042;-87
2022/04/25 12:59:48;;;;;;;11.63;6.65;;;14.30;99.90;;;;;;5058999;28;20159;-87
2022/04/25 13:02:17;;;;;;;9.18;6.00;;;14.20;99.90;;;;;;5069318;28;20406;-87
2022/04/25 13:05:08;;;;;;;8.85;5.90;;;14.10;99.90;;;;;;5054979;28;20046;-87
2022/04/25 13:07:37;;;;;;;7.60;6.30;;;13.90;99.90;;;;;;5074081;28;20078;-88
2022/04/25 13:10:12;;;;;;;6.55;5.85;;;13.80;99.90;;;;;;5058594;28;20058;-88
2022/04/25 13:12:39;;;;;;;;;;;13.70;99.90;;;;;;5058307;28;20032;-86
2022/04/25 13:15:20;;;;;;;8.65;5.70;;;13.70;99.90;;;;;;5075263;28;20243;-87
2022/04/25 13:17:48;;;;;;;8.50;5.60;;;13.80;99.90;;;;;;5075631;28;20448;-88
2022/04/25 13:20:17;;;;;;;7.28;5.63;;;13.70;99.90;;;;;;5071032;28;20067;-87
2022/04/25 13:22:43;;;;;;;6.75;5.13;;;13.70;99.90;;;;;;5056133;28;20047;-87
2022/04/25 13:25:11;;;;;;;7.70;5.70;;;13.70;99.90;;;;;;5067535;28;20044;-87
2022/04/25 13:27:37;;;;;;;8.00;6.20;;;13.50;99.90;;;;;;5069709;28;20410;-88
2022/04/25 13:30:05;;;;;;;10.88;6.47;;;13.50;99.90;;;;;;5073296;28;22125;-88